CPA580 YSSY-VHHH
Flight info
| Callsign | CPA580 |
|---|---|
| Flight time | N/A |
| Altitude | 34000 |
| Route | RIC H530 AGRAX/N0498F360 H530 SURVO R340 AMN/N0492F380 A461 ZAM A583 SABNO V542 BETTY |
| Aircraft | A35K/H-SDE2E3GHIJ3J4J5LM1ORWXY/LB1D1 |
Departure
| Time | 2026-04-30 02:48 |
|---|---|
| Airport | Sydney Kingsford Smith International Airport (YSSY) |
Arrival
| Time | N/A |
|---|---|
| Airport | Hong Kong International Airport (VHHH) |
| Time | Latitude | Longitude | Altitude | Speed | Heading |
|---|---|---|---|---|---|
| 2026-04-30 02:13 | -33.93477 | 151.16805 | 27 ft | 0 kts | 257° |
| 2026-04-30 02:35 | -33.93475 | 151.16817 | 27 ft | 4 kts | 257° |
| 2026-04-30 02:35 | -33.93469 | 151.16849 | 26 ft | 4 kts | 257° |
| 2026-04-30 02:35 | -33.93463 | 151.16878 | 24 ft | 4 kts | 251° |
| 2026-04-30 02:36 | -33.93450 | 151.16902 | 25 ft | 4 kts | 198° |
| 2026-04-30 02:36 | -33.93425 | 151.16902 | 26 ft | 4 kts | 162° |
| 2026-04-30 02:36 | -33.93402 | 151.16893 | 26 ft | 1 kts | 168° |
| 2026-04-30 02:39 | -33.93408 | 151.16894 | 27 ft | 5 kts | 169° |
| 2026-04-30 02:39 | -33.93469 | 151.16911 | 27 ft | 10 kts | 159° |
| 2026-04-30 02:40 | -33.93504 | 151.17014 | 26 ft | 17 kts | 81° |
| 2026-04-30 02:40 | -33.93564 | 151.17116 | 32 ft | 16 kts | 161° |
| 2026-04-30 02:40 | -33.93675 | 151.17148 | 29 ft | 17 kts | 167° |
| 2026-04-30 02:40 | -33.93805 | 151.17181 | 25 ft | 20 kts | 168° |
| 2026-04-30 02:41 | -33.93944 | 151.17216 | 26 ft | 20 kts | 168° |
| 2026-04-30 02:41 | -33.93985 | 151.17227 | 28 ft | 0 kts | 168° |
| 2026-04-30 02:42 | -33.94033 | 151.17239 | 27 ft | 18 kts | 168° |
| 2026-04-30 02:42 | -33.94189 | 151.17281 | 28 ft | 24 kts | 168° |
| 2026-04-30 02:42 | -33.94350 | 151.17322 | 31 ft | 23 kts | 168° |
| 2026-04-30 02:42 | -33.94508 | 151.17363 | 32 ft | 24 kts | 168° |
| 2026-04-30 02:43 | -33.94672 | 151.17406 | 32 ft | 24 kts | 167° |
| 2026-04-30 02:43 | -33.94848 | 151.17451 | 27 ft | 27 kts | 168° |
| 2026-04-30 02:43 | -33.95037 | 151.17501 | 29 ft | 28 kts | 167° |
| 2026-04-30 02:43 | -33.95216 | 151.17548 | 26 ft | 29 kts | 168° |
| 2026-04-30 02:44 | -33.95416 | 151.17601 | 28 ft | 29 kts | 167° |
| 2026-04-30 02:44 | -33.95610 | 151.17650 | 28 ft | 28 kts | 168° |
| 2026-04-30 02:44 | -33.95800 | 151.17699 | 30 ft | 28 kts | 167° |
| 2026-04-30 02:44 | -33.95998 | 151.17750 | 29 ft | 29 kts | 168° |
| 2026-04-30 02:45 | -33.96174 | 151.17795 | 29 ft | 23 kts | 168° |
| 2026-04-30 02:45 | -33.96339 | 151.17838 | 29 ft | 24 kts | 168° |
| 2026-04-30 02:45 | -33.96433 | 151.17891 | 30 ft | 8 kts | 121° |
| 2026-04-30 02:45 | -33.96437 | 151.17932 | 29 ft | 0 kts | 85° |
| 2026-04-30 02:46 | -33.96428 | 151.17994 | 30 ft | 18 kts | 77° |
| 2026-04-30 02:46 | -33.96372 | 151.18051 | 30 ft | 11 kts | 356° |
| 2026-04-30 02:46 | -33.96351 | 151.18046 | 30 ft | 0 kts | 348° |
| 2026-04-30 02:47 | -33.96319 | 151.18037 | 29 ft | 26 kts | 347° |
| 2026-04-30 02:47 | -33.95903 | 151.17928 | 28 ft | 94 kts | 348° |
| 2026-04-30 02:47 | -33.95067 | 151.17715 | 28 ft | 150 kts | 346° |
| 2026-04-30 02:47 | -33.93978 | 151.17413 | 467 ft | 159 kts | 349° |
| 2026-04-30 02:48 | -33.92884 | 151.17121 | 976 ft | 164 kts | 349° |
| 2026-04-30 02:48 | -33.91715 | 151.16822 | 1391 ft | 183 kts | 349° |
| 2026-04-30 02:48 | -33.90376 | 151.16878 | 1551 ft | 206 kts | 22° |